sensor_id;sensor_type;location;lat;lon;timestamp;P1;durP1;ratioP1;P2;durP2;ratioP2
66437;SDS011;54537;47.972;11.662;2023-05-23T00:00:28;19.23;;;8.98;;
66437;SDS011;54537;47.972;11.662;2023-05-23T00:02:57;17.55;;;8.80;;
66437;SDS011;54537;47.972;11.662;2023-05-23T00:05:24;18.77;;;8.88;;
66437;SDS011;54537;47.972;11.662;2023-05-23T00:07:53;18.23;;;9.32;;
66437;SDS011;54537;47.972;11.662;2023-05-23T00:10:21;19.45;;;9.20;;
66437;SDS011;54537;47.972;11.662;2023-05-23T00:12:47;20.40;;;8.98;;
66437;SDS011;54537;47.972;11.662;2023-05-23T00:15:14;16.45;;;8.57;;
66437;SDS011;54537;47.972;11.662;2023-05-23T00:17:40;19.00;;;9.00;;
66437;SDS011;54537;47.972;11.662;2023-05-23T00:20:08;20.08;;;8.88;;
66437;SDS011;54537;47.972;11.662;2023-05-23T00:22:36;22.13;;;9.00;;
66437;SDS011;54537;47.972;11.662;2023-05-23T00:25:04;17.85;;;8.82;;
66437;SDS011;54537;47.972;11.662;2023-05-23T00:27:32;18.30;;;9.00;;
66437;SDS011;54537;47.972;11.662;2023-05-23T00:29:59;17.52;;;8.68;;
66437;SDS011;54537;47.972;11.662;2023-05-23T00:32:25;17.42;;;8.50;;
66437;SDS011;54537;47.972;11.662;2023-05-23T00:34:52;16.90;;;8.60;;
66437;SDS011;54537;47.972;11.662;2023-05-23T00:37:20;20.10;;;9.43;;
66437;SDS011;54537;47.972;11.662;2023-05-23T00:39:46;19.65;;;9.88;;
66437;SDS011;54537;47.972;11.662;2023-05-23T00:42:13;19.10;;;8.63;;
66437;SDS011;54537;47.972;11.662;2023-05-23T00:44:41;17.40;;;8.80;;
66437;SDS011;54537;47.972;11.662;2023-05-23T00:47:07;18.98;;;8.20;;
66437;SDS011;54537;47.972;11.662;2023-05-23T00:49:35;21.13;;;9.05;;
66437;SDS011;54537;47.972;11.662;2023-05-23T00:52:01;18.52;;;9.43;;
66437;SDS011;54537;47.972;11.662;2023-05-23T00:54:29;19.77;;;9.15;;
66437;SDS011;54537;47.972;11.662;2023-05-23T00:56:56;19.17;;;9.02;;
66437;SDS011;54537;47.972;11.662;2023-05-23T00:59:23;20.20;;;9.00;;
66437;SDS011;54537;47.972;11.662;2023-05-23T01:01:51;20.10;;;8.88;;
66437;SDS011;54537;47.972;11.662;2023-05-23T01:04:19;19.35;;;9.50;;
66437;SDS011;54537;47.972;11.662;2023-05-23T01:06:50;19.38;;;9.30;;
66437;SDS011;54537;47.972;11.662;2023-05-23T01:09:17;20.95;;;8.50;;
66437;SDS011;54537;47.972;11.662;2023-05-23T01:11:47;18.48;;;8.40;;
66437;SDS011;54537;47.972;11.662;2023-05-23T01:14:18;20.02;;;8.85;;
66437;SDS011;54537;47.972;11.662;2023-05-23T01:16:47;19.13;;;9.18;;
66437;SDS011;54537;47.972;11.662;2023-05-23T01:19:26;18.33;;;8.55;;
66437;SDS011;54537;47.972;11.662;2023-05-23T01:22:05;17.45;;;8.82;;
66437;SDS011;54537;47.972;11.662;2023-05-23T01:24:39;17.45;;;8.27;;
66437;SDS011;54537;47.972;11.662;2023-05-23T01:27:16;18.15;;;8.70;;
66437;SDS011;54537;47.972;11.662;2023-05-23T01:29:50;19.98;;;8.35;;
66437;SDS011;54537;47.972;11.662;2023-05-23T01:32:20;18.85;;;8.68;;
66437;SDS011;54537;47.972;11.662;2023-05-23T01:34:47;18.60;;;8.82;;
66437;SDS011;54537;47.972;11.662;2023-05-23T01:37:14;19.30;;;9.40;;
66437;SDS011;54537;47.972;11.662;2023-05-23T01:39:43;20.33;;;9.60;;
66437;SDS011;54537;47.972;11.662;2023-05-23T01:42:10;20.55;;;9.45;;
66437;SDS011;54537;47.972;11.662;2023-05-23T01:44:37;19.83;;;9.13;;
66437;SDS011;54537;47.972;11.662;2023-05-23T01:47:06;21.00;;;9.13;;
66437;SDS011;54537;47.972;11.662;2023-05-23T01:49:33;23.13;;;9.25;;
66437;SDS011;54537;47.972;11.662;2023-05-23T01:52:01;19.20;;;9.30;;
66437;SDS011;54537;47.972;11.662;2023-05-23T01:54:27;23.30;;;9.98;;
66437;SDS011;54537;47.972;11.662;2023-05-23T01:56:55;17.23;;;8.73;;
66437;SDS011;54537;47.972;11.662;2023-05-23T01:59:22;19.42;;;9.63;;
66437;SDS011;54537;47.972;11.662;2023-05-23T02:01:49;19.42;;;9.55;;
66437;SDS011;54537;47.972;11.662;2023-05-23T02:04:17;18.08;;;9.32;;
66437;SDS011;54537;47.972;11.662;2023-05-23T02:06:43;19.58;;;9.23;;
66437;SDS011;54537;47.972;11.662;2023-05-23T02:09:10;18.45;;;8.98;;
66437;SDS011;54537;47.972;11.662;2023-05-23T02:11:37;21.45;;;9.45;;
66437;SDS011;54537;47.972;11.662;2023-05-23T02:14:03;23.33;;;9.07;;
66437;SDS011;54537;47.972;11.662;2023-05-23T02:16:30;18.85;;;8.65;;
66437;SDS011;54537;47.972;11.662;2023-05-23T02:18:57;18.10;;;9.32;;
66437;SDS011;54537;47.972;11.662;2023-05-23T02:21:25;17.83;;;8.82;;
66437;SDS011;54537;47.972;11.662;2023-05-23T02:23:51;18.35;;;8.85;;
66437;SDS011;54537;47.972;11.662;2023-05-23T02:26:17;18.45;;;8.88;;
66437;SDS011;54537;47.972;11.662;2023-05-23T02:28:44;20.38;;;9.35;;
66437;SDS011;54537;47.972;11.662;2023-05-23T02:31:10;19.70;;;9.05;;
66437;SDS011;54537;47.972;11.662;2023-05-23T02:33:37;17.73;;;9.20;;
66437;SDS011;54537;47.972;11.662;2023-05-23T02:36:04;20.42;;;9.82;;
66437;SDS011;54537;47.972;11.662;2023-05-23T02:38:32;20.17;;;9.98;;
66437;SDS011;54537;47.972;11.662;2023-05-23T02:40:58;17.20;;;8.65;;
66437;SDS011;54537;47.972;11.662;2023-05-23T02:43:25;23.13;;;9.32;;
66437;SDS011;54537;47.972;11.662;2023-05-23T02:45:51;17.88;;;9.35;;
66437;SDS011;54537;47.972;11.662;2023-05-23T02:48:18;16.20;;;8.35;;
66437;SDS011;54537;47.972;11.662;2023-05-23T02:50:45;19.45;;;9.52;;
66437;SDS011;54537;47.972;11.662;2023-05-23T02:53:11;17.48;;;8.93;;
66437;SDS011;54537;47.972;11.662;2023-05-23T02:55:39;19.88;;;9.15;;
66437;SDS011;54537;47.972;11.662;2023-05-23T02:58:06;19.02;;;9.52;;
66437;SDS011;54537;47.972;11.662;2023-05-23T03:00:33;18.35;;;9.43;;
66437;SDS011;54537;47.972;11.662;2023-05-23T03:03:01;19.83;;;9.40;;
66437;SDS011;54537;47.972;11.662;2023-05-23T03:05:27;18.98;;;9.20;;
66437;SDS011;54537;47.972;11.662;2023-05-23T03:07:54;18.52;;;8.73;;
66437;SDS011;54537;47.972;11.662;2023-05-23T03:10:21;20.02;;;9.90;;
66437;SDS011;54537;47.972;11.662;2023-05-23T03:12:49;20.38;;;9.35;;
66437;SDS011;54537;47.972;11.662;2023-05-23T03:15:16;21.38;;;9.15;;
66437;SDS011;54537;47.972;11.662;2023-05-23T03:17:42;17.70;;;8.98;;
66437;SDS011;54537;47.972;11.662;2023-05-23T03:20:09;18.67;;;9.15;;
66437;SDS011;54537;47.972;11.662;2023-05-23T03:22:36;20.85;;;8.88;;
66437;SDS011;54537;47.972;11.662;2023-05-23T03:25:03;18.83;;;9.23;;
66437;SDS011;54537;47.972;11.662;2023-05-23T03:27:30;18.55;;;9.15;;
66437;SDS011;54537;47.972;11.662;2023-05-23T03:29:58;19.00;;;8.90;;
66437;SDS011;54537;47.972;11.662;2023-05-23T03:32:24;18.65;;;9.07;;
66437;SDS011;54537;47.972;11.662;2023-05-23T03:34:51;22.20;;;10.15;;
66437;SDS011;54537;47.972;11.662;2023-05-23T03:37:17;18.13;;;8.50;;
66437;SDS011;54537;47.972;11.662;2023-05-23T03:39:44;19.92;;;9.45;;
66437;SDS011;54537;47.972;11.662;2023-05-23T03:42:11;17.55;;;8.25;;
66437;SDS011;54537;47.972;11.662;2023-05-23T03:44:37;20.05;;;9.43;;
66437;SDS011;54537;47.972;11.662;2023-05-23T03:47:05;15.75;;;8.55;;
66437;SDS011;54537;47.972;11.662;2023-05-23T03:49:32;20.52;;;8.90;;
66437;SDS011;54537;47.972;11.662;2023-05-23T03:51:58;16.65;;;8.23;;
66437;SDS011;54537;47.972;11.662;2023-05-23T03:54:25;18.60;;;8.30;;
66437;SDS011;54537;47.972;11.662;2023-05-23T03:56:51;18.08;;;8.85;;
66437;SDS011;54537;47.972;11.662;2023-05-23T03:59:18;17.77;;;8.55;;
66437;SDS011;54537;47.972;11.662;2023-05-23T04:01:44;17.35;;;8.60;;
66437;SDS011;54537;47.972;11.662;2023-05-23T04:04:12;16.85;;;8.70;;
66437;SDS011;54537;47.972;11.662;2023-05-23T04:06:39;18.55;;;9.07;;
66437;SDS011;54537;47.972;11.662;2023-05-23T04:09:05;17.58;;;8.32;;
66437;SDS011;54537;47.972;11.662;2023-05-23T04:11:32;18.00;;;8.48;;
66437;SDS011;54537;47.972;11.662;2023-05-23T04:13:58;19.90;;;9.38;;
66437;SDS011;54537;47.972;11.662;2023-05-23T04:16:26;17.98;;;8.60;;
66437;SDS011;54537;47.972;11.662;2023-05-23T04:18:52;20.80;;;8.70;;
66437;SDS011;54537;47.972;11.662;2023-05-23T04:21:20;21.02;;;9.15;;
66437;SDS011;54537;47.972;11.662;2023-05-23T04:23:47;17.77;;;9.30;;
66437;SDS011;54537;47.972;11.662;2023-05-23T04:26:13;18.25;;;8.43;;
66437;SDS011;54537;47.972;11.662;2023-05-23T04:28:40;19.65;;;9.90;;
66437;SDS011;54537;47.972;11.662;2023-05-23T04:31:10;19.73;;;8.75;;
66437;SDS011;54537;47.972;11.662;2023-05-23T04:33:36;20.90;;;8.98;;
66437;SDS011;54537;47.972;11.662;2023-05-23T04:36:03;18.08;;;8.73;;
66437;SDS011;54537;47.972;11.662;2023-05-23T04:38:34;20.08;;;9.45;;
66437;SDS011;54537;47.972;11.662;2023-05-23T04:41:02;19.77;;;9.60;;
66437;SDS011;54537;47.972;11.662;2023-05-23T04:43:30;22.83;;;9.27;;
66437;SDS011;54537;47.972;11.662;2023-05-23T04:45:57;21.20;;;10.18;;
66437;SDS011;54537;47.972;11.662;2023-05-23T04:48:24;20.95;;;9.75;;
66437;SDS011;54537;47.972;11.662;2023-05-23T04:50:51;22.33;;;10.27;;
66437;SDS011;54537;47.972;11.662;2023-05-23T04:53:20;20.02;;;10.00;;
66437;SDS011;54537;47.972;11.662;2023-05-23T04:55:47;22.52;;;9.73;;
66437;SDS011;54537;47.972;11.662;2023-05-23T04:58:14;25.38;;;10.20;;
66437;SDS011;54537;47.972;11.662;2023-05-23T05:00:41;21.25;;;10.25;;
66437;SDS011;54537;47.972;11.662;2023-05-23T05:03:07;21.85;;;10.77;;
66437;SDS011;54537;47.972;11.662;2023-05-23T05:05:35;21.80;;;10.90;;
66437;SDS011;54537;47.972;11.662;2023-05-23T05:08:02;20.85;;;10.23;;
66437;SDS011;54537;47.972;11.662;2023-05-23T05:10:28;21.40;;;10.65;;
66437;SDS011;54537;47.972;11.662;2023-05-23T05:12:56;21.33;;;10.70;;
66437;SDS011;54537;47.972;11.662;2023-05-23T05:15:23;24.13;;;11.13;;
66437;SDS011;54537;47.972;11.662;2023-05-23T05:17:49;25.75;;;11.43;;
66437;SDS011;54537;47.972;11.662;2023-05-23T05:20:16;25.92;;;12.13;;
66437;SDS011;54537;47.972;11.662;2023-05-23T05:22:43;24.02;;;11.90;;
66437;SDS011;54537;47.972;11.662;2023-05-23T05:25:10;23.38;;;11.13;;
66437;SDS011;54537;47.972;11.662;2023-05-23T05:27:38;23.20;;;10.90;;
66437;SDS011;54537;47.972;11.662;2023-05-23T05:30:06;21.45;;;10.38;;
66437;SDS011;54537;47.972;11.662;2023-05-23T05:32:34;22.13;;;10.18;;
66437;SDS011;54537;47.972;11.662;2023-05-23T05:35:01;22.13;;;10.30;;
66437;SDS011;54537;47.972;11.662;2023-05-23T05:37:28;19.50;;;9.75;;
66437;SDS011;54537;47.972;11.662;2023-05-23T05:39:54;28.73;;;10.93;;
66437;SDS011;54537;47.972;11.662;2023-05-23T05:42:21;23.27;;;10.65;;
66437;SDS011;54537;47.972;11.662;2023-05-23T05:44:48;23.60;;;10.75;;
66437;SDS011;54537;47.972;11.662;2023-05-23T05:47:16;25.00;;;10.73;;
66437;SDS011;54537;47.972;11.662;2023-05-23T05:49:42;21.15;;;9.98;;
66437;SDS011;54537;47.972;11.662;2023-05-23T05:52:09;23.83;;;10.63;;
66437;SDS011;54537;47.972;11.662;2023-05-23T05:54:35;22.27;;;10.15;;
66437;SDS011;54537;47.972;11.662;2023-05-23T05:57:02;21.05;;;11.23;;
66437;SDS011;54537;47.972;11.662;2023-05-23T05:59:28;21.88;;;11.00;;
66437;SDS011;54537;47.972;11.662;2023-05-23T06:01:55;27.02;;;12.13;;
66437;SDS011;54537;47.972;11.662;2023-05-23T06:04:22;23.13;;;11.25;;
66437;SDS011;54537;47.972;11.662;2023-05-23T06:06:49;24.33;;;11.30;;
66437;SDS011;54537;47.972;11.662;2023-05-23T06:09:16;25.25;;;11.23;;
66437;SDS011;54537;47.972;11.662;2023-05-23T06:11:42;25.10;;;11.00;;
66437;SDS011;54537;47.972;11.662;2023-05-23T06:14:08;24.33;;;11.88;;
66437;SDS011;54537;47.972;11.662;2023-05-23T06:16:35;23.58;;;11.10;;
66437;SDS011;54537;47.972;11.662;2023-05-23T06:19:01;23.55;;;11.43;;
66437;SDS011;54537;47.972;11.662;2023-05-23T06:21:29;25.02;;;11.27;;
66437;SDS011;54537;47.972;11.662;2023-05-23T06:23:56;24.30;;;11.18;;
66437;SDS011;54537;47.972;11.662;2023-05-23T06:26:22;27.85;;;11.85;;
66437;SDS011;54537;47.972;11.662;2023-05-23T06:28:49;26.15;;;11.52;;
66437;SDS011;54537;47.972;11.662;2023-05-23T06:31:15;23.50;;;10.90;;
66437;SDS011;54537;47.972;11.662;2023-05-23T06:33:42;21.52;;;11.13;;
66437;SDS011;54537;47.972;11.662;2023-05-23T06:36:08;25.17;;;11.55;;
66437;SDS011;54537;47.972;11.662;2023-05-23T06:38:36;20.60;;;10.85;;
66437;SDS011;54537;47.972;11.662;2023-05-23T06:41:02;21.80;;;10.63;;
66437;SDS011;54537;47.972;11.662;2023-05-23T06:43:31;26.67;;;10.98;;
66437;SDS011;54537;47.972;11.662;2023-05-23T06:45:57;19.60;;;10.05;;
66437;SDS011;54537;47.972;11.662;2023-05-23T06:48:24;18.65;;;9.75;;
66437;SDS011;54537;47.972;11.662;2023-05-23T06:50:50;20.95;;;9.38;;
66437;SDS011;54537;47.972;11.662;2023-05-23T06:53:17;22.90;;;10.18;;
66437;SDS011;54537;47.972;11.662;2023-05-23T06:55:45;23.50;;;10.35;;
66437;SDS011;54537;47.972;11.662;2023-05-23T06:58:11;19.88;;;10.32;;
66437;SDS011;54537;47.972;11.662;2023-05-23T07:00:38;18.80;;;9.93;;
66437;SDS011;54537;47.972;11.662;2023-05-23T07:03:05;18.13;;;9.57;;
66437;SDS011;54537;47.972;11.662;2023-05-23T07:05:32;19.55;;;10.48;;
66437;SDS011;54537;47.972;11.662;2023-05-23T07:08:00;24.58;;;10.48;;
66437;SDS011;54537;47.972;11.662;2023-05-23T07:10:27;17.10;;;9.32;;
66437;SDS011;54537;47.972;11.662;2023-05-23T07:12:54;19.30;;;10.02;;
66437;SDS011;54537;47.972;11.662;2023-05-23T07:15:21;20.83;;;9.98;;
66437;SDS011;54537;47.972;11.662;2023-05-23T07:17:47;19.92;;;9.45;;
66437;SDS011;54537;47.972;11.662;2023-05-23T07:20:14;13.45;;;7.85;;
66437;SDS011;54537;47.972;11.662;2023-05-23T07:22:40;18.65;;;9.43;;
66437;SDS011;54537;47.972;11.662;2023-05-23T07:25:07;15.80;;;8.25;;
66437;SDS011;54537;47.972;11.662;2023-05-23T07:27:34;18.27;;;9.80;;
66437;SDS011;54537;47.972;11.662;2023-05-23T07:30:01;18.10;;;9.30;;
66437;SDS011;54537;47.972;11.662;2023-05-23T07:32:29;17.63;;;9.60;;
66437;SDS011;54537;47.972;11.662;2023-05-23T07:34:55;18.42;;;9.43;;
66437;SDS011;54537;47.972;11.662;2023-05-23T07:37:22;16.02;;;9.10;;
66437;SDS011;54537;47.972;11.662;2023-05-23T07:39:48;18.65;;;9.82;;
66437;SDS011;54537;47.972;11.662;2023-05-23T07:42:15;17.90;;;9.80;;
66437;SDS011;54537;47.972;11.662;2023-05-23T07:44:41;18.35;;;9.68;;
66437;SDS011;54537;47.972;11.662;2023-05-23T07:47:09;17.50;;;9.90;;
66437;SDS011;54537;47.972;11.662;2023-05-23T07:49:35;22.77;;;10.77;;
66437;SDS011;54537;47.972;11.662;2023-05-23T07:52:02;19.08;;;10.48;;
66437;SDS011;54537;47.972;11.662;2023-05-23T07:54:29;17.60;;;9.95;;
66437;SDS011;54537;47.972;11.662;2023-05-23T07:56:55;17.85;;;9.50;;
66437;SDS011;54537;47.972;11.662;2023-05-23T07:59:22;18.60;;;9.30;;
66437;SDS011;54537;47.972;11.662;2023-05-23T08:01:48;21.02;;;10.02;;
66437;SDS011;54537;47.972;11.662;2023-05-23T08:04:17;19.63;;;9.85;;
66437;SDS011;54537;47.972;11.662;2023-05-23T08:06:43;20.90;;;10.18;;
66437;SDS011;54537;47.972;11.662;2023-05-23T08:09:12;19.80;;;10.52;;
66437;SDS011;54537;47.972;11.662;2023-05-23T08:11:38;23.70;;;10.43;;
66437;SDS011;54537;47.972;11.662;2023-05-23T08:14:05;18.88;;;10.70;;
66437;SDS011;54537;47.972;11.662;2023-05-23T08:16:32;22.65;;;10.43;;
66437;SDS011;54537;47.972;11.662;2023-05-23T08:18:59;21.13;;;11.35;;
66437;SDS011;54537;47.972;11.662;2023-05-23T08:21:27;22.40;;;11.43;;
66437;SDS011;54537;47.972;11.662;2023-05-23T08:23:54;23.33;;;12.02;;
66437;SDS011;54537;47.972;11.662;2023-05-23T08:26:20;25.13;;;11.13;;
66437;SDS011;54537;47.972;11.662;2023-05-23T08:28:46;19.00;;;10.00;;
66437;SDS011;54537;47.972;11.662;2023-05-23T08:31:13;21.50;;;11.13;;
66437;SDS011;54537;47.972;11.662;2023-05-23T08:33:40;20.77;;;10.95;;
66437;SDS011;54537;47.972;11.662;2023-05-23T08:36:07;22.35;;;10.80;;
66437;SDS011;54537;47.972;11.662;2023-05-23T08:38:35;23.42;;;12.05;;
66437;SDS011;54537;47.972;11.662;2023-05-23T08:41:01;25.83;;;11.80;;
66437;SDS011;54537;47.972;11.662;2023-05-23T08:43:28;25.48;;;12.05;;
66437;SDS011;54537;47.972;11.662;2023-05-23T08:45:54;21.60;;;11.77;;
66437;SDS011;54537;47.972;11.662;2023-05-23T08:48:21;24.40;;;11.57;;
66437;SDS011;54537;47.972;11.662;2023-05-23T08:50:47;23.58;;;11.48;;
66437;SDS011;54537;47.972;11.662;2023-05-23T08:53:16;23.55;;;12.52;;
66437;SDS011;54537;47.972;11.662;2023-05-23T08:55:45;22.50;;;11.45;;
66437;SDS011;54537;47.972;11.662;2023-05-23T08:58:12;23.00;;;11.73;;
66437;SDS011;54537;47.972;11.662;2023-05-23T09:00:39;21.35;;;11.02;;
66437;SDS011;54537;47.972;11.662;2023-05-23T09:03:06;22.25;;;10.88;;
66437;SDS011;54537;47.972;11.662;2023-05-23T09:05:34;21.23;;;10.85;;
66437;SDS011;54537;47.972;11.662;2023-05-23T09:08:00;19.20;;;10.90;;
66437;SDS011;54537;47.972;11.662;2023-05-23T09:10:27;19.30;;;11.02;;
66437;SDS011;54537;47.972;11.662;2023-05-23T09:12:55;21.75;;;10.40;;
66437;SDS011;54537;47.972;11.662;2023-05-23T09:15:22;20.70;;;9.90;;
66437;SDS011;54537;47.972;11.662;2023-05-23T09:17:51;19.88;;;10.18;;
66437;SDS011;54537;47.972;11.662;2023-05-23T09:20:17;21.70;;;10.75;;
66437;SDS011;54537;47.972;11.662;2023-05-23T09:22:44;21.15;;;10.88;;
66437;SDS011;54537;47.972;11.662;2023-05-23T09:25:11;19.80;;;10.85;;
66437;SDS011;54537;47.972;11.662;2023-05-23T09:27:38;22.60;;;11.80;;
66437;SDS011;54537;47.972;11.662;2023-05-23T09:30:07;20.20;;;10.50;;
66437;SDS011;54537;47.972;11.662;2023-05-23T09:32:34;20.15;;;11.38;;
66437;SDS011;54537;47.972;11.662;2023-05-23T09:35:02;21.40;;;11.05;;
66437;SDS011;54537;47.972;11.662;2023-05-23T09:37:29;19.50;;;10.25;;
66437;SDS011;54537;47.972;11.662;2023-05-23T09:39:57;22.55;;;11.88;;
66437;SDS011;54537;47.972;11.662;2023-05-23T09:42:24;23.10;;;11.18;;
66437;SDS011;54537;47.972;11.662;2023-05-23T09:44:52;22.52;;;11.38;;
66437;SDS011;54537;47.972;11.662;2023-05-23T09:47:20;22.05;;;11.98;;
66437;SDS011;54537;47.972;11.662;2023-05-23T09:49:46;23.27;;;11.63;;
66437;SDS011;54537;47.972;11.662;2023-05-23T09:52:13;22.35;;;11.35;;
66437;SDS011;54537;47.972;11.662;2023-05-23T09:54:39;22.35;;;11.55;;
66437;SDS011;54537;47.972;11.662;2023-05-23T09:57:07;21.15;;;11.02;;
66437;SDS011;54537;47.972;11.662;2023-05-23T09:59:37;20.90;;;12.15;;
66437;SDS011;54537;47.972;11.662;2023-05-23T10:02:05;21.80;;;11.70;;
66437;SDS011;54537;47.972;11.662;2023-05-23T10:04:34;22.60;;;11.13;;
66437;SDS011;54537;47.972;11.662;2023-05-23T10:07:03;18.52;;;11.02;;
66437;SDS011;54537;47.972;11.662;2023-05-23T10:09:31;16.45;;;9.80;;
66437;SDS011;54537;47.972;11.662;2023-05-23T10:12:20;17.48;;;11.23;;
66437;SDS011;54537;47.972;11.662;2023-05-23T10:15:08;17.40;;;10.10;;
66437;SDS011;54537;47.972;11.662;2023-05-23T10:17:35;16.38;;;10.30;;
66437;SDS011;54537;47.972;11.662;2023-05-23T10:20:09;16.00;;;9.93;;
66437;SDS011;54537;47.972;11.662;2023-05-23T10:22:36;17.23;;;11.23;;
66437;SDS011;54537;47.972;11.662;2023-05-23T10:25:03;19.13;;;10.63;;
66437;SDS011;54537;47.972;11.662;2023-05-23T10:27:30;16.10;;;10.45;;
66437;SDS011;54537;47.972;11.662;2023-05-23T10:29:57;16.67;;;10.98;;
66437;SDS011;54537;47.972;11.662;2023-05-23T10:32:24;20.27;;;11.68;;
66437;SDS011;54537;47.972;11.662;2023-05-23T10:34:53;20.58;;;12.57;;
66437;SDS011;54537;47.972;11.662;2023-05-23T10:37:26;20.48;;;12.18;;
66437;SDS011;54537;47.972;11.662;2023-05-23T10:39:58;22.75;;;13.38;;
66437;SDS011;54537;47.972;11.662;2023-05-23T10:42:32;24.33;;;13.70;;
66437;SDS011;54537;47.972;11.662;2023-05-23T10:45:13;29.50;;;15.02;;
66437;SDS011;54537;47.972;11.662;2023-05-23T10:47:40;28.10;;;14.77;;
66437;SDS011;54537;47.972;11.662;2023-05-23T10:50:10;28.17;;;14.45;;
66437;SDS011;54537;47.972;11.662;2023-05-23T10:52:39;30.67;;;15.02;;
66437;SDS011;54537;47.972;11.662;2023-05-23T10:55:11;27.65;;;15.20;;
66437;SDS011;54537;47.972;11.662;2023-05-23T10:57:38;29.30;;;14.73;;
66437;SDS011;54537;47.972;11.662;2023-05-23T11:00:10;29.08;;;14.43;;
66437;SDS011;54537;47.972;11.662;2023-05-23T11:02:38;29.30;;;14.35;;
66437;SDS011;54537;47.972;11.662;2023-05-23T11:05:19;25.63;;;12.82;;
66437;SDS011;54537;47.972;11.662;2023-05-23T11:07:56;22.92;;;11.98;;
66437;SDS011;54537;47.972;11.662;2023-05-23T11:10:32;27.63;;;13.48;;
66437;SDS011;54537;47.972;11.662;2023-05-23T11:13:04;26.52;;;14.32;;
66437;SDS011;54537;47.972;11.662;2023-05-23T11:15:40;26.63;;;14.50;;
66437;SDS011;54537;47.972;11.662;2023-05-23T11:18:09;26.05;;;13.60;;
66437;SDS011;54537;47.972;11.662;2023-05-23T11:20:36;21.48;;;11.63;;
66437;SDS011;54537;47.972;11.662;2023-05-23T11:23:06;21.58;;;11.55;;
66437;SDS011;54537;47.972;11.662;2023-05-23T11:25:40;23.77;;;12.23;;
66437;SDS011;54537;47.972;11.662;2023-05-23T11:28:07;25.92;;;12.32;;
66437;SDS011;54537;47.972;11.662;2023-05-23T11:30:34;25.55;;;13.70;;
66437;SDS011;54537;47.972;11.662;2023-05-23T11:33:05;22.10;;;13.35;;
66437;SDS011;54537;47.972;11.662;2023-05-23T11:35:32;25.48;;;13.50;;
66437;SDS011;54537;47.972;11.662;2023-05-23T11:37:59;22.85;;;13.85;;
66437;SDS011;54537;47.972;11.662;2023-05-23T11:40:28;25.15;;;13.88;;
66437;SDS011;54537;47.972;11.662;2023-05-23T11:42:56;24.40;;;13.90;;
66437;SDS011;54537;47.972;11.662;2023-05-23T11:45:23;24.15;;;13.63;;
66437;SDS011;54537;47.972;11.662;2023-05-23T11:47:50;25.15;;;13.52;;
66437;SDS011;54537;47.972;11.662;2023-05-23T11:50:17;25.55;;;13.50;;
66437;SDS011;54537;47.972;11.662;2023-05-23T11:52:44;21.75;;;12.85;;
66437;SDS011;54537;47.972;11.662;2023-05-23T11:57:43;19.40;;;11.95;;
66437;SDS011;54537;47.972;11.662;2023-05-23T12:00:10;20.70;;;12.10;;
66437;SDS011;54537;47.972;11.662;2023-05-23T12:02:38;18.17;;;10.45;;
66437;SDS011;54537;47.972;11.662;2023-05-23T12:05:08;19.58;;;11.30;;
66437;SDS011;54537;47.972;11.662;2023-05-23T12:07:35;17.02;;;10.40;;
66437;SDS011;54537;47.972;11.662;2023-05-23T12:10:06;18.00;;;11.02;;
66437;SDS011;54537;47.972;11.662;2023-05-23T12:12:33;15.73;;;10.10;;
66437;SDS011;54537;47.972;11.662;2023-05-23T12:15:01;19.63;;;10.68;;
66437;SDS011;54537;47.972;11.662;2023-05-23T12:17:29;19.48;;;11.05;;
66437;SDS011;54537;47.972;11.662;2023-05-23T12:19:55;16.50;;;10.57;;
66437;SDS011;54537;47.972;11.662;2023-05-23T12:22:22;18.17;;;10.73;;
66437;SDS011;54537;47.972;11.662;2023-05-23T12:24:51;14.80;;;9.18;;
66437;SDS011;54537;47.972;11.662;2023-05-23T12:27:18;18.77;;;10.35;;
66437;SDS011;54537;47.972;11.662;2023-05-23T12:29:49;14.48;;;10.05;;
66437;SDS011;54537;47.972;11.662;2023-05-23T12:32:17;17.52;;;9.70;;
66437;SDS011;54537;47.972;11.662;2023-05-23T12:34:44;19.45;;;10.60;;
66437;SDS011;54537;47.972;11.662;2023-05-23T12:37:11;15.98;;;9.63;;
66437;SDS011;54537;47.972;11.662;2023-05-23T12:39:38;17.70;;;9.38;;
66437;SDS011;54537;47.972;11.662;2023-05-23T12:42:08;18.50;;;9.82;;
66437;SDS011;54537;47.972;11.662;2023-05-23T12:44:35;17.42;;;9.63;;
66437;SDS011;54537;47.972;11.662;2023-05-23T12:47:02;15.75;;;9.57;;
66437;SDS011;54537;47.972;11.662;2023-05-23T12:49:30;15.98;;;9.30;;
66437;SDS011;54537;47.972;11.662;2023-05-23T12:51:56;20.50;;;10.32;;
66437;SDS011;54537;47.972;11.662;2023-05-23T12:54:23;18.48;;;9.80;;
66437;SDS011;54537;47.972;11.662;2023-05-23T12:56:49;16.27;;;8.35;;
66437;SDS011;54537;47.972;11.662;2023-05-23T12:59:16;16.60;;;9.40;;
66437;SDS011;54537;47.972;11.662;2023-05-23T13:01:42;18.13;;;9.15;;
66437;SDS011;54537;47.972;11.662;2023-05-23T13:04:09;17.95;;;9.07;;
66437;SDS011;54537;47.972;11.662;2023-05-23T13:06:36;18.52;;;9.93;;
66437;SDS011;54537;47.972;11.662;2023-05-23T13:09:03;20.23;;;9.80;;
66437;SDS011;54537;47.972;11.662;2023-05-23T13:11:30;20.73;;;9.30;;
66437;SDS011;54537;47.972;11.662;2023-05-23T13:13:56;16.77;;;8.55;;
66437;SDS011;54537;47.972;11.662;2023-05-23T13:16:23;21.83;;;10.30;;
66437;SDS011;54537;47.972;11.662;2023-05-23T13:18:49;17.13;;;8.25;;
66437;SDS011;54537;47.972;11.662;2023-05-23T13:21:15;21.00;;;9.18;;
66437;SDS011;54537;47.972;11.662;2023-05-23T13:23:43;21.48;;;9.27;;
66437;SDS011;54537;47.972;11.662;2023-05-23T13:26:10;15.68;;;7.88;;
66437;SDS011;54537;47.972;11.662;2023-05-23T13:28:38;11.50;;;5.60;;
66437;SDS011;54537;47.972;11.662;2023-05-23T13:31:04;13.13;;;5.75;;
66437;SDS011;54537;47.972;11.662;2023-05-23T13:33:31;10.55;;;5.70;;
66437;SDS011;54537;47.972;11.662;2023-05-23T13:35:57;17.58;;;6.88;;
66437;SDS011;54537;47.972;11.662;2023-05-23T13:38:24;22.60;;;6.65;;
66437;SDS011;54537;47.972;11.662;2023-05-23T13:40:53;11.68;;;6.05;;
66437;SDS011;54537;47.972;11.662;2023-05-23T13:43:19;18.17;;;6.35;;
66437;SDS011;54537;47.972;11.662;2023-05-23T13:45:46;16.90;;;6.05;;
66437;SDS011;54537;47.972;11.662;2023-05-23T13:48:12;15.43;;;6.70;;
66437;SDS011;54537;47.972;11.662;2023-05-23T13:50:39;18.20;;;7.32;;
66437;SDS011;54537;47.972;11.662;2023-05-23T13:53:05;18.02;;;7.85;;
66437;SDS011;54537;47.972;11.662;2023-05-23T13:55:38;17.10;;;7.78;;
66437;SDS011;54537;47.972;11.662;2023-05-23T13:58:06;20.30;;;7.22;;
66437;SDS011;54537;47.972;11.662;2023-05-23T14:00:32;22.42;;;8.40;;
66437;SDS011;54537;47.972;11.662;2023-05-23T14:02:59;20.27;;;8.32;;
66437;SDS011;54537;47.972;11.662;2023-05-23T14:05:25;20.55;;;8.57;;
66437;SDS011;54537;47.972;11.662;2023-05-23T14:07:52;19.40;;;8.50;;
66437;SDS011;54537;47.972;11.662;2023-05-23T14:10:20;23.25;;;8.82;;
66437;SDS011;54537;47.972;11.662;2023-05-23T14:12:46;18.88;;;8.15;;
66437;SDS011;54537;47.972;11.662;2023-05-23T14:15:14;20.35;;;8.63;;
66437;SDS011;54537;47.972;11.662;2023-05-23T14:17:41;24.30;;;9.27;;
66437;SDS011;54537;47.972;11.662;2023-05-23T14:20:08;22.85;;;9.02;;